sensor_id;sensor_type;location;lat;lon;timestamp;temperature;humidity
18974;DHT22;9621;48.690;9.466;2024-02-28T00:01:48;5.50;99.90
18974;DHT22;9621;48.690;9.466;2024-02-28T00:04:15;5.50;99.90
18974;DHT22;9621;48.690;9.466;2024-02-28T00:06:42;5.50;99.90
18974;DHT22;9621;48.690;9.466;2024-02-28T00:09:12;5.50;99.90
18974;DHT22;9621;48.690;9.466;2024-02-28T00:11:42;5.50;99.90
18974;DHT22;9621;48.690;9.466;2024-02-28T00:14:10;5.40;99.90
18974;DHT22;9621;48.690;9.466;2024-02-28T00:16:40;5.40;99.90
18974;DHT22;9621;48.690;9.466;2024-02-28T00:19:07;5.40;99.90
18974;DHT22;9621;48.690;9.466;2024-02-28T00:21:34;5.40;99.90
18974;DHT22;9621;48.690;9.466;2024-02-28T00:24:01;5.40;99.90
18974;DHT22;9621;48.690;9.466;2024-02-28T00:26:29;5.30;99.90
18974;DHT22;9621;48.690;9.466;2024-02-28T00:28:56;5.40;99.90
18974;DHT22;9621;48.690;9.466;2024-02-28T00:31:23;5.40;99.90
18974;DHT22;9621;48.690;9.466;2024-02-28T00:33:50;5.40;99.90
18974;DHT22;9621;48.690;9.466;2024-02-28T00:36:17;5.40;99.90
18974;DHT22;9621;48.690;9.466;2024-02-28T00:38:44;5.40;99.90
18974;DHT22;9621;48.690;9.466;2024-02-28T00:41:11;5.40;99.90
18974;DHT22;9621;48.690;9.466;2024-02-28T00:43:40;5.30;99.90
18974;DHT22;9621;48.690;9.466;2024-02-28T00:46:07;5.40;99.90
18974;DHT22;9621;48.690;9.466;2024-02-28T00:48:36;5.30;99.90
18974;DHT22;9621;48.690;9.466;2024-02-28T00:51:03;5.40;99.90
18974;DHT22;9621;48.690;9.466;2024-02-28T00:53:30;5.30;99.90
18974;DHT22;9621;48.690;9.466;2024-02-28T00:55:58;5.40;99.90
18974;DHT22;9621;48.690;9.466;2024-02-28T00:58:24;5.30;99.90
18974;DHT22;9621;48.690;9.466;2024-02-28T01:00:54;5.30;99.90
18974;DHT22;9621;48.690;9.466;2024-02-28T01:03:21;5.30;99.90
18974;DHT22;9621;48.690;9.466;2024-02-28T01:05:49;5.40;99.90
18974;DHT22;9621;48.690;9.466;2024-02-28T01:08:16;5.30;99.90
18974;DHT22;9621;48.690;9.466;2024-02-28T01:10:43;5.30;99.90
18974;DHT22;9621;48.690;9.466;2024-02-28T01:13:10;5.30;99.90
18974;DHT22;9621;48.690;9.466;2024-02-28T01:15:39;5.30;99.90
18974;DHT22;9621;48.690;9.466;2024-02-28T01:18:08;5.40;99.90
18974;DHT22;9621;48.690;9.466;2024-02-28T01:20:35;5.30;99.90
18974;DHT22;9621;48.690;9.466;2024-02-28T01:23:03;5.30;99.90
18974;DHT22;9621;48.690;9.466;2024-02-28T01:25:30;5.30;99.90
18974;DHT22;9621;48.690;9.466;2024-02-28T01:27:57;5.30;99.90
18974;DHT22;9621;48.690;9.466;2024-02-28T01:30:24;5.30;99.90
18974;DHT22;9621;48.690;9.466;2024-02-28T01:32:51;5.60;99.90
18974;DHT22;9621;48.690;9.466;2024-02-28T01:35:19;5.30;99.90
18974;DHT22;9621;48.690;9.466;2024-02-28T01:37:47;5.40;99.90
18974;DHT22;9621;48.690;9.466;2024-02-28T01:40:14;5.40;99.90
18974;DHT22;9621;48.690;9.466;2024-02-28T01:42:41;5.40;99.90
18974;DHT22;9621;48.690;9.466;2024-02-28T01:45:11;5.40;99.90
18974;DHT22;9621;48.690;9.466;2024-02-28T01:47:40;5.40;99.90
18974;DHT22;9621;48.690;9.466;2024-02-28T01:50:07;5.40;99.90
18974;DHT22;9621;48.690;9.466;2024-02-28T01:52:37;5.50;99.90
18974;DHT22;9621;48.690;9.466;2024-02-28T01:55:05;5.40;99.90
18974;DHT22;9621;48.690;9.466;2024-02-28T01:57:33;5.40;99.90
18974;DHT22;9621;48.690;9.466;2024-02-28T02:00:03;5.40;99.90
18974;DHT22;9621;48.690;9.466;2024-02-28T02:02:30;5.40;99.90
18974;DHT22;9621;48.690;9.466;2024-02-28T02:04:57;5.40;99.90
18974;DHT22;9621;48.690;9.466;2024-02-28T02:07:24;5.40;99.90
18974;DHT22;9621;48.690;9.466;2024-02-28T02:09:53;5.40;99.90
18974;DHT22;9621;48.690;9.466;2024-02-28T02:12:21;5.40;99.90
18974;DHT22;9621;48.690;9.466;2024-02-28T02:14:48;5.30;99.90
18974;DHT22;9621;48.690;9.466;2024-02-28T02:17:19;5.40;99.90
18974;DHT22;9621;48.690;9.466;2024-02-28T02:19:46;5.40;99.90
18974;DHT22;9621;48.690;9.466;2024-02-28T02:22:14;5.30;99.90
18974;DHT22;9621;48.690;9.466;2024-02-28T02:24:42;5.80;99.90
18974;DHT22;9621;48.690;9.466;2024-02-28T02:27:09;5.40;99.90
18974;DHT22;9621;48.690;9.466;2024-02-28T02:29:36;5.40;99.90
18974;DHT22;9621;48.690;9.466;2024-02-28T02:32:03;5.40;99.90
18974;DHT22;9621;48.690;9.466;2024-02-28T02:34:30;5.40;99.90
18974;DHT22;9621;48.690;9.466;2024-02-28T02:36:57;5.40;99.90
18974;DHT22;9621;48.690;9.466;2024-02-28T02:39:24;5.40;99.90
18974;DHT22;9621;48.690;9.466;2024-02-28T02:41:52;5.60;99.90
18974;DHT22;9621;48.690;9.466;2024-02-28T02:44:19;5.60;99.90
18974;DHT22;9621;48.690;9.466;2024-02-28T02:46:46;5.40;99.90
18974;DHT22;9621;48.690;9.466;2024-02-28T02:49:13;5.40;99.90
18974;DHT22;9621;48.690;9.466;2024-02-28T02:51:40;5.40;99.90
18974;DHT22;9621;48.690;9.466;2024-02-28T02:54:08;5.40;99.90
18974;DHT22;9621;48.690;9.466;2024-02-28T02:56:36;5.50;99.90
18974;DHT22;9621;48.690;9.466;2024-02-28T02:59:04;5.50;99.90
18974;DHT22;9621;48.690;9.466;2024-02-28T03:01:31;5.50;99.90
18974;DHT22;9621;48.690;9.466;2024-02-28T03:03:58;5.50;99.90
18974;DHT22;9621;48.690;9.466;2024-02-28T03:06:25;5.50;99.90
18974;DHT22;9621;48.690;9.466;2024-02-28T03:08:52;5.50;99.90
18974;DHT22;9621;48.690;9.466;2024-02-28T03:11:19;5.50;99.90
18974;DHT22;9621;48.690;9.466;2024-02-28T03:13:46;5.50;99.90
18974;DHT22;9621;48.690;9.466;2024-02-28T03:16:14;5.50;99.90
18974;DHT22;9621;48.690;9.466;2024-02-28T03:18:41;5.50;99.90
18974;DHT22;9621;48.690;9.466;2024-02-28T03:21:08;5.50;99.90
18974;DHT22;9621;48.690;9.466;2024-02-28T03:23:35;5.50;99.90
18974;DHT22;9621;48.690;9.466;2024-02-28T03:26:02;5.60;99.90
18974;DHT22;9621;48.690;9.466;2024-02-28T03:28:30;5.50;99.90
18974;DHT22;9621;48.690;9.466;2024-02-28T03:30:57;5.50;99.90
18974;DHT22;9621;48.690;9.466;2024-02-28T03:33:25;5.60;99.90
18974;DHT22;9621;48.690;9.466;2024-02-28T03:35:52;5.60;99.90
18974;DHT22;9621;48.690;9.466;2024-02-28T03:38:19;5.60;99.90
18974;DHT22;9621;48.690;9.466;2024-02-28T03:40:46;5.60;99.90
18974;DHT22;9621;48.690;9.466;2024-02-28T03:43:13;5.50;99.90
18974;DHT22;9621;48.690;9.466;2024-02-28T03:45:40;5.60;99.90
18974;DHT22;9621;48.690;9.466;2024-02-28T03:48:07;5.60;99.90
18974;DHT22;9621;48.690;9.466;2024-02-28T03:50:35;5.60;99.90
18974;DHT22;9621;48.690;9.466;2024-02-28T03:53:03;5.60;99.90
18974;DHT22;9621;48.690;9.466;2024-02-28T03:55:31;5.60;99.90
18974;DHT22;9621;48.690;9.466;2024-02-28T03:57:58;5.80;99.90
18974;DHT22;9621;48.690;9.466;2024-02-28T04:00:25;5.60;99.90
18974;DHT22;9621;48.690;9.466;2024-02-28T04:02:52;5.70;99.90
18974;DHT22;9621;48.690;9.466;2024-02-28T04:05:19;5.70;99.90
18974;DHT22;9621;48.690;9.466;2024-02-28T04:07:47;5.80;99.90
18974;DHT22;9621;48.690;9.466;2024-02-28T04:10:15;5.70;99.90
18974;DHT22;9621;48.690;9.466;2024-02-28T04:12:42;5.70;99.90
18974;DHT22;9621;48.690;9.466;2024-02-28T04:15:10;5.70;99.90
18974;DHT22;9621;48.690;9.466;2024-02-28T04:17:38;5.70;99.90
18974;DHT22;9621;48.690;9.466;2024-02-28T04:20:08;5.70;99.90
18974;DHT22;9621;48.690;9.466;2024-02-28T04:22:35;5.60;99.90
18974;DHT22;9621;48.690;9.466;2024-02-28T04:25:07;5.50;99.90
18974;DHT22;9621;48.690;9.466;2024-02-28T04:27:34;5.50;99.90
18974;DHT22;9621;48.690;9.466;2024-02-28T04:30:01;5.50;99.90
18974;DHT22;9621;48.690;9.466;2024-02-28T04:32:29;5.40;99.90
18974;DHT22;9621;48.690;9.466;2024-02-28T04:34:56;5.40;99.90
18974;DHT22;9621;48.690;9.466;2024-02-28T04:37:23;5.40;99.90
18974;DHT22;9621;48.690;9.466;2024-02-28T04:39:50;5.30;99.90
18974;DHT22;9621;48.690;9.466;2024-02-28T04:42:18;5.40;99.90
18974;DHT22;9621;48.690;9.466;2024-02-28T04:44:47;5.40;99.90
18974;DHT22;9621;48.690;9.466;2024-02-28T04:47:14;5.30;99.90
18974;DHT22;9621;48.690;9.466;2024-02-28T04:49:41;5.40;99.90
18974;DHT22;9621;48.690;9.466;2024-02-28T04:52:08;5.40;99.90
18974;DHT22;9621;48.690;9.466;2024-02-28T04:54:35;5.50;99.90
18974;DHT22;9621;48.690;9.466;2024-02-28T04:57:02;5.40;99.90
18974;DHT22;9621;48.690;9.466;2024-02-28T04:59:32;5.50;99.90
18974;DHT22;9621;48.690;9.466;2024-02-28T05:01:59;5.80;99.90
18974;DHT22;9621;48.690;9.466;2024-02-28T05:04:26;5.50;99.90
18974;DHT22;9621;48.690;9.466;2024-02-28T05:06:53;5.50;99.90
18974;DHT22;9621;48.690;9.466;2024-02-28T05:09:20;5.50;99.90
18974;DHT22;9621;48.690;9.466;2024-02-28T05:11:47;5.50;99.90
18974;DHT22;9621;48.690;9.466;2024-02-28T05:14:14;5.50;99.90
18974;DHT22;9621;48.690;9.466;2024-02-28T05:16:42;5.50;99.90
18974;DHT22;9621;48.690;9.466;2024-02-28T05:19:09;5.50;99.90
18974;DHT22;9621;48.690;9.466;2024-02-28T05:21:40;5.50;99.90
18974;DHT22;9621;48.690;9.466;2024-02-28T05:24:07;5.50;99.90
18974;DHT22;9621;48.690;9.466;2024-02-28T05:26:35;5.50;99.90
18974;DHT22;9621;48.690;9.466;2024-02-28T05:29:02;5.50;99.90
18974;DHT22;9621;48.690;9.466;2024-02-28T05:31:30;5.70;99.90
18974;DHT22;9621;48.690;9.466;2024-02-28T05:34:00;5.50;99.90
18974;DHT22;9621;48.690;9.466;2024-02-28T05:36:28;5.60;99.90
18974;DHT22;9621;48.690;9.466;2024-02-28T05:38:56;5.50;99.90
18974;DHT22;9621;48.690;9.466;2024-02-28T05:41:24;5.50;99.90
18974;DHT22;9621;48.690;9.466;2024-02-28T05:43:51;5.50;99.90
18974;DHT22;9621;48.690;9.466;2024-02-28T05:46:19;5.50;99.90
18974;DHT22;9621;48.690;9.466;2024-02-28T05:48:47;5.50;99.90
18974;DHT22;9621;48.690;9.466;2024-02-28T05:51:16;5.50;99.90
18974;DHT22;9621;48.690;9.466;2024-02-28T05:53:43;5.60;99.90
18974;DHT22;9621;48.690;9.466;2024-02-28T05:56:10;5.50;99.90
18974;DHT22;9621;48.690;9.466;2024-02-28T05:58:40;5.50;99.90
18974;DHT22;9621;48.690;9.466;2024-02-28T06:01:08;5.60;99.90
18974;DHT22;9621;48.690;9.466;2024-02-28T06:03:35;5.50;99.90
18974;DHT22;9621;48.690;9.466;2024-02-28T06:06:03;5.50;99.90
18974;DHT22;9621;48.690;9.466;2024-02-28T06:08:33;5.50;99.90
18974;DHT22;9621;48.690;9.466;2024-02-28T06:11:00;5.50;99.90
18974;DHT22;9621;48.690;9.466;2024-02-28T06:13:27;5.50;99.90
18974;DHT22;9621;48.690;9.466;2024-02-28T06:15:54;5.50;99.90
18974;DHT22;9621;48.690;9.466;2024-02-28T06:18:21;5.50;99.90
18974;DHT22;9621;48.690;9.466;2024-02-28T06:20:52;5.50;99.90
18974;DHT22;9621;48.690;9.466;2024-02-28T06:23:19;5.50;99.90
18974;DHT22;9621;48.690;9.466;2024-02-28T06:25:47;5.50;99.90
18974;DHT22;9621;48.690;9.466;2024-02-28T06:28:14;5.50;99.90
18974;DHT22;9621;48.690;9.466;2024-02-28T06:30:42;5.50;99.90
18974;DHT22;9621;48.690;9.466;2024-02-28T06:33:09;5.50;99.90
18974;DHT22;9621;48.690;9.466;2024-02-28T06:35:36;5.50;99.90
18974;DHT22;9621;48.690;9.466;2024-02-28T06:38:03;5.50;99.90
18974;DHT22;9621;48.690;9.466;2024-02-28T06:40:30;5.50;99.90
18974;DHT22;9621;48.690;9.466;2024-02-28T06:42:59;5.50;99.90
18974;DHT22;9621;48.690;9.466;2024-02-28T06:45:26;5.40;99.90
18974;DHT22;9621;48.690;9.466;2024-02-28T06:47:53;5.50;99.90
18974;DHT22;9621;48.690;9.466;2024-02-28T06:50:20;5.50;99.90
18974;DHT22;9621;48.690;9.466;2024-02-28T06:52:49;5.50;99.90
18974;DHT22;9621;48.690;9.466;2024-02-28T06:55:19;5.50;99.90
18974;DHT22;9621;48.690;9.466;2024-02-28T06:57:46;5.50;99.90
18974;DHT22;9621;48.690;9.466;2024-02-28T07:00:16;5.50;99.90
18974;DHT22;9621;48.690;9.466;2024-02-28T07:02:44;5.50;99.90
18974;DHT22;9621;48.690;9.466;2024-02-28T07:05:12;5.50;99.90
18974;DHT22;9621;48.690;9.466;2024-02-28T07:07:39;5.50;99.90
18974;DHT22;9621;48.690;9.466;2024-02-28T07:10:06;5.50;99.90
18974;DHT22;9621;48.690;9.466;2024-02-28T07:12:33;5.60;99.90
18974;DHT22;9621;48.690;9.466;2024-02-28T07:15:00;5.50;99.90
18974;DHT22;9621;48.690;9.466;2024-02-28T07:17:29;5.60;99.90
18974;DHT22;9621;48.690;9.466;2024-02-28T07:19:56;5.60;99.90
18974;DHT22;9621;48.690;9.466;2024-02-28T07:22:23;5.50;99.90
18974;DHT22;9621;48.690;9.466;2024-02-28T07:24:50;5.60;99.90
18974;DHT22;9621;48.690;9.466;2024-02-28T07:27:17;5.60;99.90
18974;DHT22;9621;48.690;9.466;2024-02-28T07:29:44;5.60;99.90
18974;DHT22;9621;48.690;9.466;2024-02-28T07:32:11;5.80;99.90
18974;DHT22;9621;48.690;9.466;2024-02-28T07:34:39;5.70;99.90
18974;DHT22;9621;48.690;9.466;2024-02-28T07:37:06;5.60;99.90
18974;DHT22;9621;48.690;9.466;2024-02-28T07:39:33;5.70;99.90
18974;DHT22;9621;48.690;9.466;2024-02-28T07:42:00;5.80;99.90
18974;DHT22;9621;48.690;9.466;2024-02-28T07:44:27;5.80;99.90
18974;DHT22;9621;48.690;9.466;2024-02-28T07:46:56;5.90;99.90
18974;DHT22;9621;48.690;9.466;2024-02-28T07:49:23;5.90;99.90
18974;DHT22;9621;48.690;9.466;2024-02-28T07:51:51;6.00;99.90
18974;DHT22;9621;48.690;9.466;2024-02-28T07:54:18;6.00;99.90
18974;DHT22;9621;48.690;9.466;2024-02-28T07:56:45;6.10;99.90
18974;DHT22;9621;48.690;9.466;2024-02-28T07:59:12;6.20;99.90
18974;DHT22;9621;48.690;9.466;2024-02-28T08:01:39;6.20;99.90
18974;DHT22;9621;48.690;9.466;2024-02-28T08:04:06;6.20;99.90
18974;DHT22;9621;48.690;9.466;2024-02-28T08:06:33;6.20;99.90
18974;DHT22;9621;48.690;9.466;2024-02-28T08:09:01;6.30;99.90
18974;DHT22;9621;48.690;9.466;2024-02-28T08:11:30;6.30;99.90
18974;DHT22;9621;48.690;9.466;2024-02-28T08:13:57;6.30;99.90
18974;DHT22;9621;48.690;9.466;2024-02-28T08:16:23;6.40;99.90
18974;DHT22;9621;48.690;9.466;2024-02-28T08:18:50;6.50;99.90
18974;DHT22;9621;48.690;9.466;2024-02-28T08:21:17;6.40;99.90
18974;DHT22;9621;48.690;9.466;2024-02-28T08:23:45;6.50;99.90
18974;DHT22;9621;48.690;9.466;2024-02-28T08:26:14;6.50;99.90
18974;DHT22;9621;48.690;9.466;2024-02-28T08:28:41;6.40;99.90
18974;DHT22;9621;48.690;9.466;2024-02-28T08:31:08;6.40;99.90
18974;DHT22;9621;48.690;9.466;2024-02-28T08:33:35;6.40;99.90
18974;DHT22;9621;48.690;9.466;2024-02-28T08:36:02;6.40;99.90
18974;DHT22;9621;48.690;9.466;2024-02-28T08:38:29;6.40;99.90
18974;DHT22;9621;48.690;9.466;2024-02-28T08:40:56;6.40;99.90
18974;DHT22;9621;48.690;9.466;2024-02-28T08:43:25;6.40;99.90
18974;DHT22;9621;48.690;9.466;2024-02-28T08:45:52;6.40;99.90
18974;DHT22;9621;48.690;9.466;2024-02-28T08:48:21;6.40;99.90
18974;DHT22;9621;48.690;9.466;2024-02-28T08:50:48;6.40;99.90
18974;DHT22;9621;48.690;9.466;2024-02-28T08:53:15;6.40;99.90
18974;DHT22;9621;48.690;9.466;2024-02-28T08:55:42;6.50;99.90
18974;DHT22;9621;48.690;9.466;2024-02-28T08:58:09;6.50;99.90
18974;DHT22;9621;48.690;9.466;2024-02-28T09:00:37;6.50;99.90
18974;DHT22;9621;48.690;9.466;2024-02-28T09:03:04;6.50;99.90
18974;DHT22;9621;48.690;9.466;2024-02-28T09:05:31;6.50;99.90
18974;DHT22;9621;48.690;9.466;2024-02-28T09:07:58;6.60;99.90
18974;DHT22;9621;48.690;9.466;2024-02-28T09:10:26;6.60;99.90
18974;DHT22;9621;48.690;9.466;2024-02-28T09:12:54;6.60;99.90
18974;DHT22;9621;48.690;9.466;2024-02-28T09:15:21;6.60;99.90
18974;DHT22;9621;48.690;9.466;2024-02-28T09:17:50;6.60;99.90
18974;DHT22;9621;48.690;9.466;2024-02-28T09:20:17;6.60;99.90
18974;DHT22;9621;48.690;9.466;2024-02-28T09:22:44;6.60;99.90
18974;DHT22;9621;48.690;9.466;2024-02-28T09:25:11;6.60;99.90
18974;DHT22;9621;48.690;9.466;2024-02-28T09:27:41;6.60;99.90
18974;DHT22;9621;48.690;9.466;2024-02-28T09:30:08;6.50;99.90
18974;DHT22;9621;48.690;9.466;2024-02-28T09:32:35;6.60;99.90
18974;DHT22;9621;48.690;9.466;2024-02-28T09:35:05;6.50;99.90
18974;DHT22;9621;48.690;9.466;2024-02-28T09:37:32;6.60;99.90
18974;DHT22;9621;48.690;9.466;2024-02-28T09:39:59;6.60;99.90
18974;DHT22;9621;48.690;9.466;2024-02-28T09:42:28;6.60;99.90
18974;DHT22;9621;48.690;9.466;2024-02-28T09:44:55;6.60;99.90
18974;DHT22;9621;48.690;9.466;2024-02-28T09:47:23;6.70;99.90
18974;DHT22;9621;48.690;9.466;2024-02-28T09:49:52;6.70;99.90
18974;DHT22;9621;48.690;9.466;2024-02-28T09:52:21;6.70;99.90
18974;DHT22;9621;48.690;9.466;2024-02-28T09:54:48;6.70;99.90
18974;DHT22;9621;48.690;9.466;2024-02-28T09:57:16;6.70;99.90
18974;DHT22;9621;48.690;9.466;2024-02-28T09:59:43;6.70;99.90
18974;DHT22;9621;48.690;9.466;2024-02-28T10:02:12;6.80;99.90
18974;DHT22;9621;48.690;9.466;2024-02-28T10:04:40;6.60;99.90
18974;DHT22;9621;48.690;9.466;2024-02-28T10:07:10;6.70;99.90
18974;DHT22;9621;48.690;9.466;2024-02-28T10:09:40;6.70;99.90
18974;DHT22;9621;48.690;9.466;2024-02-28T10:12:08;6.60;99.90
18974;DHT22;9621;48.690;9.466;2024-02-28T10:14:35;6.70;99.90
18974;DHT22;9621;48.690;9.466;2024-02-28T10:17:02;6.70;99.90
18974;DHT22;9621;48.690;9.466;2024-02-28T10:19:29;6.60;99.90
18974;DHT22;9621;48.690;9.466;2024-02-28T10:21:56;6.70;99.90
18974;DHT22;9621;48.690;9.466;2024-02-28T10:24:24;6.70;99.90
18974;DHT22;9621;48.690;9.466;2024-02-28T10:26:53;6.70;99.90
18974;DHT22;9621;48.690;9.466;2024-02-28T10:29:22;6.70;99.90
18974;DHT22;9621;48.690;9.466;2024-02-28T10:31:49;6.80;99.90
18974;DHT22;9621;48.690;9.466;2024-02-28T10:34:17;6.90;99.90
18974;DHT22;9621;48.690;9.466;2024-02-28T10:36:44;7.00;99.90
18974;DHT22;9621;48.690;9.466;2024-02-28T10:39:12;7.00;99.90
18974;DHT22;9621;48.690;9.466;2024-02-28T10:41:41;7.10;99.90
18974;DHT22;9621;48.690;9.466;2024-02-28T10:44:09;7.10;99.90
18974;DHT22;9621;48.690;9.466;2024-02-28T10:46:38;7.20;99.90
18974;DHT22;9621;48.690;9.466;2024-02-28T10:49:05;7.20;99.90
18974;DHT22;9621;48.690;9.466;2024-02-28T10:51:34;7.20;99.90
18974;DHT22;9621;48.690;9.466;2024-02-28T10:54:08;7.20;99.90
18974;DHT22;9621;48.690;9.466;2024-02-28T10:56:37;7.20;99.90
18974;DHT22;9621;48.690;9.466;2024-02-28T10:59:06;7.20;99.90
18974;DHT22;9621;48.690;9.466;2024-02-28T11:01:35;7.20;99.90
18974;DHT22;9621;48.690;9.466;2024-02-28T11:04:03;7.20;99.90
18974;DHT22;9621;48.690;9.466;2024-02-28T11:06:31;7.30;99.90
18974;DHT22;9621;48.690;9.466;2024-02-28T11:08:59;7.30;99.90
18974;DHT22;9621;48.690;9.466;2024-02-28T11:11:30;7.30;99.90
18974;DHT22;9621;48.690;9.466;2024-02-28T11:13:58;7.30;99.90
18974;DHT22;9621;48.690;9.466;2024-02-28T11:16:27;7.30;99.90
18974;DHT22;9621;48.690;9.466;2024-02-28T11:18:57;7.40;99.90
18974;DHT22;9621;48.690;9.466;2024-02-28T11:21:24;7.40;99.90
18974;DHT22;9621;48.690;9.466;2024-02-28T11:23:52;7.50;99.90
18974;DHT22;9621;48.690;9.466;2024-02-28T11:26:23;7.50;99.90
18974;DHT22;9621;48.690;9.466;2024-02-28T11:28:51;7.60;99.90
18974;DHT22;9621;48.690;9.466;2024-02-28T11:31:17;7.60;99.90
18974;DHT22;9621;48.690;9.466;2024-02-28T11:33:47;7.60;99.90
18974;DHT22;9621;48.690;9.466;2024-02-28T11:36:16;7.60;99.90
18974;DHT22;9621;48.690;9.466;2024-02-28T11:38:44;7.70;99.90
18974;DHT22;9621;48.690;9.466;2024-02-28T11:41:12;7.70;99.90
18974;DHT22;9621;48.690;9.466;2024-02-28T11:43:39;7.70;99.90
18974;DHT22;9621;48.690;9.466;2024-02-28T11:46:08;7.80;99.90
18974;DHT22;9621;48.690;9.466;2024-02-28T11:48:36;7.80;99.90
18974;DHT22;9621;48.690;9.466;2024-02-28T11:51:03;7.90;99.90
18974;DHT22;9621;48.690;9.466;2024-02-28T11:53:32;7.80;99.90
18974;DHT22;9621;48.690;9.466;2024-02-28T11:55:58;7.80;99.90
18974;DHT22;9621;48.690;9.466;2024-02-28T11:58:26;7.70;99.90
18974;DHT22;9621;48.690;9.466;2024-02-28T12:00:53;7.70;99.90
18974;DHT22;9621;48.690;9.466;2024-02-28T12:03:21;7.70;99.90
18974;DHT22;9621;48.690;9.466;2024-02-28T12:05:49;7.70;99.90
18974;DHT22;9621;48.690;9.466;2024-02-28T12:08:17;7.70;99.90
18974;DHT22;9621;48.690;9.466;2024-02-28T12:10:46;7.70;99.90
18974;DHT22;9621;48.690;9.466;2024-02-28T12:13:16;7.80;99.90
18974;DHT22;9621;48.690;9.466;2024-02-28T12:15:43;7.70;99.90
18974;DHT22;9621;48.690;9.466;2024-02-28T12:18:11;7.70;99.90
18974;DHT22;9621;48.690;9.466;2024-02-28T12:20:38;7.70;99.90
18974;DHT22;9621;48.690;9.466;2024-02-28T12:23:05;7.70;99.90
18974;DHT22;9621;48.690;9.466;2024-02-28T12:25:33;7.60;99.90
18974;DHT22;9621;48.690;9.466;2024-02-28T12:28:04;7.60;99.90
18974;DHT22;9621;48.690;9.466;2024-02-28T12:30:40;7.50;99.90
18974;DHT22;9621;48.690;9.466;2024-02-28T12:33:07;7.40;99.90
18974;DHT22;9621;48.690;9.466;2024-02-28T12:35:35;7.50;99.90
18974;DHT22;9621;48.690;9.466;2024-02-28T12:38:02;7.30;99.90
18974;DHT22;9621;48.690;9.466;2024-02-28T12:40:29;7.20;99.90
18974;DHT22;9621;48.690;9.466;2024-02-28T12:42:56;7.20;99.90
18974;DHT22;9621;48.690;9.466;2024-02-28T12:45:25;7.20;99.90
18974;DHT22;9621;48.690;9.466;2024-02-28T12:47:52;7.20;99.90
18974;DHT22;9621;48.690;9.466;2024-02-28T12:50:22;7.10;99.90
18974;DHT22;9621;48.690;9.466;2024-02-28T12:52:50;7.10;99.90
18974;DHT22;9621;48.690;9.466;2024-02-28T12:55:19;7.10;99.90
18974;DHT22;9621;48.690;9.466;2024-02-28T12:57:47;7.10;99.90
18974;DHT22;9621;48.690;9.466;2024-02-28T13:00:16;7.10;99.90
18974;DHT22;9621;48.690;9.466;2024-02-28T13:02:45;7.10;99.90
18974;DHT22;9621;48.690;9.466;2024-02-28T13:05:12;7.10;99.90
18974;DHT22;9621;48.690;9.466;2024-02-28T13:07:39;7.10;99.90
18974;DHT22;9621;48.690;9.466;2024-02-28T13:10:07;7.10;99.90
18974;DHT22;9621;48.690;9.466;2024-02-28T13:12:35;7.10;99.90
18974;DHT22;9621;48.690;9.466;2024-02-28T13:15:02;7.10;99.90
18974;DHT22;9621;48.690;9.466;2024-02-28T13:17:31;7.10;99.90
18974;DHT22;9621;48.690;9.466;2024-02-28T13:19:59;7.10;99.90
18974;DHT22;9621;48.690;9.466;2024-02-28T13:22:26;7.10;99.90
18974;DHT22;9621;48.690;9.466;2024-02-28T13:24:53;7.00;99.90
18974;DHT22;9621;48.690;9.466;2024-02-28T13:27:20;7.00;99.90
18974;DHT22;9621;48.690;9.466;2024-02-28T13:29:47;7.00;99.90
18974;DHT22;9621;48.690;9.466;2024-02-28T13:32:14;7.00;99.90
18974;DHT22;9621;48.690;9.466;2024-02-28T13:34:42;7.00;99.90
18974;DHT22;9621;48.690;9.466;2024-02-28T13:37:10;7.00;99.90
18974;DHT22;9621;48.690;9.466;2024-02-28T13:39:37;7.10;99.90
18974;DHT22;9621;48.690;9.466;2024-02-28T13:42:04;7.10;99.90
18974;DHT22;9621;48.690;9.466;2024-02-28T13:44:33;7.10;99.90
18974;DHT22;9621;48.690;9.466;2024-02-28T13:47:02;7.10;99.90
18974;DHT22;9621;48.690;9.466;2024-02-28T13:49:29;7.10;99.90
18974;DHT22;9621;48.690;9.466;2024-02-28T13:51:56;7.20;99.90
18974;DHT22;9621;48.690;9.466;2024-02-28T13:54:24;7.20;99.90
18974;DHT22;9621;48.690;9.466;2024-02-28T13:56:51;7.10;99.90
18974;DHT22;9621;48.690;9.466;2024-02-28T13:59:18;7.10;99.90
18974;DHT22;9621;48.690;9.466;2024-02-28T14:01:45;7.20;99.90
18974;DHT22;9621;48.690;9.466;2024-02-28T14:04:12;7.10;99.90
18974;DHT22;9621;48.690;9.466;2024-02-28T14:06:39;7.10;99.90
18974;DHT22;9621;48.690;9.466;2024-02-28T14:09:06;7.10;99.90
18974;DHT22;9621;48.690;9.466;2024-02-28T14:11:36;6.90;99.90
18974;DHT22;9621;48.690;9.466;2024-02-28T14:14:03;7.10;99.90
18974;DHT22;9621;48.690;9.466;2024-02-28T14:16:30;7.10;99.90
18974;DHT22;9621;48.690;9.466;2024-02-28T14:18:58;7.20;99.90
18974;DHT22;9621;48.690;9.466;2024-02-28T14:21:25;7.10;99.90
18974;DHT22;9621;48.690;9.466;2024-02-28T14:23:52;7.20;99.90
18974;DHT22;9621;48.690;9.466;2024-02-28T14:26:19;7.10;99.90
18974;DHT22;9621;48.690;9.466;2024-02-28T14:28:50;7.20;99.90
18974;DHT22;9621;48.690;9.466;2024-02-28T14:31:17;7.20;99.90
18974;DHT22;9621;48.690;9.466;2024-02-28T14:33:45;7.20;99.90
18974;DHT22;9621;48.690;9.466;2024-02-28T14:36:12;7.20;99.90
18974;DHT22;9621;48.690;9.466;2024-02-28T14:38:39;7.10;99.90
18974;DHT22;9621;48.690;9.466;2024-02-28T14:41:06;7.20;99.90
18974;DHT22;9621;48.690;9.466;2024-02-28T14:43:34;7.10;99.90
18974;DHT22;9621;48.690;9.466;2024-02-28T14:46:03;7.00;99.90
18974;DHT22;9621;48.690;9.466;2024-02-28T14:48:30;7.00;99.90
18974;DHT22;9621;48.690;9.466;2024-02-28T14:50:57;7.00;99.90
18974;DHT22;9621;48.690;9.466;2024-02-28T14:53:24;7.00;99.90
18974;DHT22;9621;48.690;9.466;2024-02-28T14:55:52;7.00;99.90
18974;DHT22;9621;48.690;9.466;2024-02-28T14:58:19;7.00;99.90
18974;DHT22;9621;48.690;9.466;2024-02-28T15:00:46;7.00;99.90
18974;DHT22;9621;48.690;9.466;2024-02-28T15:03:16;7.00;99.90
18974;DHT22;9621;48.690;9.466;2024-02-28T15:05:43;7.00;99.90
18974;DHT22;9621;48.690;9.466;2024-02-28T15:08:10;7.00;99.90
18974;DHT22;9621;48.690;9.466;2024-02-28T15:10:37;7.00;99.90
18974;DHT22;9621;48.690;9.466;2024-02-28T15:13:04;7.00;99.90
18974;DHT22;9621;48.690;9.466;2024-02-28T15:15:33;7.10;99.90
18974;DHT22;9621;48.690;9.466;2024-02-28T15:18:00;7.10;99.90
18974;DHT22;9621;48.690;9.466;2024-02-28T15:20:29;7.10;99.90
18974;DHT22;9621;48.690;9.466;2024-02-28T15:22:56;7.20;99.90
18974;DHT22;9621;48.690;9.466;2024-02-28T15:25:25;7.20;99.90
18974;DHT22;9621;48.690;9.466;2024-02-28T15:27:51;7.20;99.90
18974;DHT22;9621;48.690;9.466;2024-02-28T15:30:18;7.20;99.90
18974;DHT22;9621;48.690;9.466;2024-02-28T15:32:45;7.20;99.90
18974;DHT22;9621;48.690;9.466;2024-02-28T15:35:12;7.10;99.90
18974;DHT22;9621;48.690;9.466;2024-02-28T15:37:41;7.20;99.90
18974;DHT22;9621;48.690;9.466;2024-02-28T15:40:08;7.10;99.90
18974;DHT22;9621;48.690;9.466;2024-02-28T15:42:34;7.10;99.90
18974;DHT22;9621;48.690;9.466;2024-02-28T15:45:01;7.20;99.90
18974;DHT22;9621;48.690;9.466;2024-02-28T15:47:28;7.10;99.90
18974;DHT22;9621;48.690;9.466;2024-02-28T15:49:55;7.10;99.90
18974;DHT22;9621;48.690;9.466;2024-02-28T15:52:27;7.10;99.90
18974;DHT22;9621;48.690;9.466;2024-02-28T15:54:56;7.00;99.90
18974;DHT22;9621;48.690;9.466;2024-02-28T15:57:23;7.00;99.90
18974;DHT22;9621;48.690;9.466;2024-02-28T15:59:50;7.00;99.90
18974;DHT22;9621;48.690;9.466;2024-02-28T16:02:18;6.90;99.90
18974;DHT22;9621;48.690;9.466;2024-02-28T16:04:45;6.90;99.90